»·PEaware :: N313R KWHP-KSBP

N313R :: KWHP-KSBP

FLIGHT INFORMATION

Flight Status: Arrived
Operator: Privately registered:
United States
More flights under this callsign
Pilot: Pablo S. (37770)
Aircraft: PIPER PA-28 CHEROKEE ARCHER
(P28A)
More flights by this aircraft type
Origin: KWHP Whiteman
United States
Destination: KSBP San Luis Co Regl
United States
More flights between these airports :: More routes between these airports
Route: VNY FIM RZS MQO
File this flight plan on PilotEdge
Remarks: Student Pilot
Altitude:
(Current/Filed)
7,500ft
Speed:
(Current/Filed)
100kts
Departed: 14-Jan-22 09:48 PM
Arrived: 14-Jan-22 11:02 PM
Distance/Time
Traveled:
124nm/1:13
Distance/Time
To Go:
Arrived

Flight Plot

Page will automatically refresh every two minutes.

Flight plan parsing failed; only flown route is shown


Map Options




Map Legend


Flown Route
Filed Route
Departure Airport
Arrival Airport
Navaid (VOR, NDB)
Fix

Horizontal Profiles

Position Reports

Time Latitude Longitude Heading Altitude Ground
Speed
14-Jan-22 21:39 34.261002 -118.412504 222 996ft 0kts
14-Jan-22 21:40 34.261002 -118.412504 222 996ft 0kts
14-Jan-22 21:41 34.261002 -118.412504 222 996ft 0kts
14-Jan-22 21:42 34.261002 -118.412504 222 996ft 0kts
14-Jan-22 21:43 34.261002 -118.412504 222 996ft 0kts
14-Jan-22 21:44 34.259926 -118.413457 138 988ft 16kts
14-Jan-22 21:45 34.255791 -118.409098 141 963ft 21kts
14-Jan-22 21:46 34.255585 -118.408914 155 961ft 0kts
14-Jan-22 21:47 34.261913 -118.416243 320 1082ft 76kts
14-Jan-22 21:48 34.276839 -118.433860 310 1728ft 78kts
14-Jan-22 21:49 34.290260 -118.456078 311 2264ft 85kts
14-Jan-22 21:50 34.306551 -118.478749 317 2629ft 90kts
14-Jan-22 21:51 34.321907 -118.506481 300 3133ft 107kts
14-Jan-22 21:52 34.330584 -118.541706 286 3785ft 115kts
14-Jan-22 21:53 34.332106 -118.575133 274 4401ft 118kts
14-Jan-22 21:54 34.326955 -118.613924 250 4668ft 127kts
14-Jan-22 21:55 34.313739 -118.650336 251 5002ft 115kts
14-Jan-22 21:56 34.308205 -118.672296 242 5102ft 114kts
14-Jan-22 21:57 34.300604 -118.697830 264 5154ft 119kts
14-Jan-22 21:58 34.295791 -118.736874 255 5319ft 117kts
14-Jan-22 21:59 34.297421 -118.775874 290 5491ft 116kts
14-Jan-22 22:00 34.307540 -118.810736 289 5856ft 97kts
14-Jan-22 22:01 34.319007 -118.841468 304 5907ft 117kts
14-Jan-22 22:02 34.333379 -118.877473 298 6020ft 119kts
14-Jan-22 22:03 34.342747 -118.916017 278 6214ft 122kts
14-Jan-22 22:04 34.347177 -118.956234 290 6443ft 119kts
14-Jan-22 22:05 34.358936 -118.993706 296 6628ft 122kts
14-Jan-22 22:06 34.368013 -119.033319 284 6923ft 123kts
14-Jan-22 22:07 34.377898 -119.073120 289 7262ft 122kts
14-Jan-22 22:08 34.385076 -119.113876 281 7517ft 124kts
14-Jan-22 22:09 34.393738 -119.154207 285 7748ft 124kts
14-Jan-22 22:10 34.400732 -119.195436 276 7862ft 123kts
14-Jan-22 22:11 34.399103 -119.237719 262 7722ft 125kts
14-Jan-22 22:12 34.402871 -119.279681 279 7486ft 126kts
14-Jan-22 22:13 34.411254 -119.320419 287 7460ft 121kts
14-Jan-22 22:14 34.421262 -119.359709 288 7452ft 124kts
14-Jan-22 22:15 34.432377 -119.399255 293 7546ft 124kts
14-Jan-22 22:16 34.445242 -119.437724 289 7569ft 123kts
14-Jan-22 22:17 34.453701 -119.478582 284 7611ft 125kts
14-Jan-22 22:18 34.463743 -119.518623 293 7663ft 115kts
14-Jan-22 22:19 34.473982 -119.559085 284 7441ft 126kts
14-Jan-22 22:20 34.479273 -119.600615 283 7328ft 126kts
14-Jan-22 22:21 34.488677 -119.640983 289 7347ft 123kts
14-Jan-22 22:22 34.500648 -119.680600 290 7126ft 131kts
14-Jan-22 22:23 34.513018 -119.719639 295 7205ft 122kts
14-Jan-22 22:24 34.529877 -119.754877 301 7164ft 123kts
14-Jan-22 22:25 34.547147 -119.791318 303 7125ft 125kts
14-Jan-22 22:26 34.566390 -119.825817 306 7195ft 123kts
14-Jan-22 22:27 34.586083 -119.859578 316 7148ft 124kts
14-Jan-22 22:28 34.606696 -119.892081 318 7183ft 120kts
14-Jan-22 22:29 34.633174 -119.916815 311 7248ft 122kts
14-Jan-22 22:30 34.651834 -119.950796 292 7210ft 123kts
14-Jan-22 22:31 34.666211 -119.987751 304 7275ft 122kts
14-Jan-22 22:32 34.687124 -120.019315 315 7284ft 119kts
14-Jan-22 22:33 34.710205 -120.048793 314 7343ft 121kts
14-Jan-22 22:34 34.734551 -120.076237 318 7406ft 119kts
14-Jan-22 22:35 34.756850 -120.106277 314 7425ft 119kts
14-Jan-22 22:36 34.779223 -120.136059 316 7419ft 119kts
14-Jan-22 22:37 34.802114 -120.165630 315 7401ft 120kts
14-Jan-22 22:38 34.825200 -120.194484 316 7401ft 120kts
14-Jan-22 22:39 34.848108 -120.223425 312 7409ft 120kts
14-Jan-22 22:40 34.870119 -120.253471 315 7438ft 119kts
14-Jan-22 22:42 34.892458 -120.283294 315 7462ft 118kts
14-Jan-22 22:43 34.915764 -120.311419 314 7527ft 115kts
14-Jan-22 22:44 34.939090 -120.339675 315 7495ft 118kts
14-Jan-22 22:45 34.961740 -120.368653 320 7514ft 117kts
14-Jan-22 22:46 34.984997 -120.396828 314 7539ft 119kts
14-Jan-22 22:47 35.006852 -120.426795 311 7529ft 118kts
14-Jan-22 22:48 35.027491 -120.458124 307 7425ft 118kts
14-Jan-22 22:49 35.045792 -120.491814 304 7178ft 119kts
14-Jan-22 22:50 35.065910 -120.524218 305 6776ft 120kts
14-Jan-22 22:51 35.090951 -120.550726 324 6241ft 119kts
14-Jan-22 22:52 35.115626 -120.577566 312 5707ft 120kts
14-Jan-22 22:53 35.138049 -120.607432 310 5251ft 118kts
14-Jan-22 22:54 35.157820 -120.639325 308 4841ft 116kts
14-Jan-22 22:55 35.176950 -120.670831 304 4378ft 115kts
14-Jan-22 22:56 35.196944 -120.701438 306 4004ft 114kts
14-Jan-22 22:57 35.215132 -120.731635 329 3637ft 106kts
14-Jan-22 22:58 35.238530 -120.726237 50 2935ft 88kts
14-Jan-22 22:59 35.253137 -120.702820 61 2249ft 81kts
14-Jan-22 23:00 35.254828 -120.677080 106 1427ft 78kts
14-Jan-22 23:01 35.244582 -120.653821 124 580ft 75kts
14-Jan-22 23:02 35.236063 -120.638654 123 199ft 32kts
14-Jan-22 23:03 35.235251 -120.634920 330 208ft 13kts
14-Jan-22 23:04 35.236051 -120.635786 209 204ft 4kts
14-Jan-22 23:05 35.236009 -120.635809 201 204ft 0kts

Navigation Log

Ident Type
Flight plan parsing failed, navigation log unavailable